Time;durP1;ratioP1;P1;durP2;ratioP2;P2;SDS_P1;SDS_P2;PMS_P1;PMS_P2;Temp;Humidity;BMP_temperature;BMP_pressure;BME280_temperature;BME280_humidity;BME280_pressure;Samples;Min_cycle;Max_cycle;Signal;HPM_P1;HPM_P2
2021/12/15 00:01:12;;;;;;;21.70;11.03;;;;;;;1.76;100.00;99630.97;4968925;29;20626;-89
2021/12/15 00:03:38;;;;;;;22.60;12.23;;;;;;;1.86;100.00;99636.72;4951818;29;20169;-88
2021/12/15 00:06:12;;;;;;;24.37;12.43;;;;;;;1.59;100.00;99595.44;4945937;29;20416;-88
2021/12/15 00:08:39;;;;;;;25.00;11.83;;;;;;;2.06;100.00;99699.13;4959828;28;20215;-89
2021/12/15 00:11:05;;;;;;;25.40;12.27;;;;;;;1.41;100.00;99589.81;4942231;29;20826;-86
2021/12/15 00:13:31;;;;;;;24.60;12.27;;;;;;;1.05;100.00;99525.34;4941530;29;20428;-86
2021/12/15 00:15:57;;;;;;;24.43;11.80;;;;;;;-0.04;100.00;99368.44;4941517;29;20168;-86
2021/12/15 00:18:23;;;;;;;24.07;10.90;;;;;;;-0.19;100.00;99319.88;4940943;29;20939;-86
2021/12/15 00:20:48;;;;;;;23.17;10.10;;;;;;;1.09;100.00;99558.88;4960192;29;20165;-90
2021/12/15 00:23:14;;;;;;;23.07;11.67;;;;;;;2.37;100.00;99765.78;4941485;29;20173;-87
2021/12/15 00:25:42;;;;;;;23.13;11.63;;;;;;;2.30;100.00;99738.56;4947933;29;20204;-88
2021/12/15 00:28:08;;;;;;;23.63;11.13;;;;;;;2.22;100.00;99740.44;4923339;29;20174;-89
2021/12/15 00:30:35;;;;;;;18.73;8.67;;;;;;;1.82;100.00;99653.06;4938630;29;20410;-88
2021/12/15 00:33:01;;;;;;;24.43;11.93;;;;;;;1.04;100.00;99526.09;4921610;29;20820;-88
2021/12/15 00:35:28;;;;;;;23.77;11.03;;;;;;;0.80;100.00;99484.22;4922958;29;20425;-88
2021/12/15 00:37:54;;;;;;;24.50;11.50;;;;;;;3.39;100.00;99912.38;4925188;29;20173;-87
2021/12/15 00:40:23;;;;;;;19.33;8.97;;;;;;;0.65;100.00;99460.53;4941380;29;20455;-87
2021/12/15 00:42:49;;;;;;;21.27;10.50;;;;;;;2.74;100.00;99819.59;4940908;29;20440;-89
2021/12/15 00:45:15;;;;;;;20.27;9.03;;;;;;;3.13;100.00;99876.94;4925338;29;20413;-87
2021/12/15 00:47:43;;;;;;;19.17;9.27;;;;;;;1.38;100.00;99569.63;4924666;29;20181;-89
2021/12/15 00:50:11;;;;;;;20.57;9.43;;;;;;;1.82;100.00;99650.56;4941505;29;20437;-87
2021/12/15 00:52:39;;;;;;;23.00;10.43;;;;;;;1.00;100.00;99513.25;4944100;29;20508;-88
2021/12/15 00:55:08;;;;;;;22.83;9.87;;;;;;;1.73;100.00;99640.72;4960757;29;20443;-87
2021/12/15 00:57:33;;;;;;;21.77;10.10;;;;;;;0.38;100.00;99386.94;4961415;29;20412;-86
2021/12/15 00:59:59;;;;;;;19.07;9.67;;;;;;;3.20;100.00;99881.66;4945895;29;20986;-87
2021/12/15 01:02:25;;;;;;;23.83;10.90;;;;;;;3.26;100.00;99909.66;4946439;29;20654;-88
2021/12/15 01:04:55;;;;;;;25.70;11.03;;;;;;;1.99;100.00;99674.41;4943980;29;20688;-88
2021/12/15 01:07:21;;;;;;;24.20;10.07;;;;;;;3.18;100.00;99873.16;4945910;29;20217;-89
2021/12/15 01:09:52;;;;;;;25.33;11.87;;;;;;;1.27;100.00;99565.38;4947605;29;20563;-88
2021/12/15 01:20:43;;;;;;;23.03;11.00;;;;;;;3.72;100.00;99925.06;4919868;29;20485;-88
2021/12/15 01:23:13;;;;;;;22.07;10.57;;;;;;;2.94;100.00;99787.91;4902941;29;20421;-89
2021/12/15 01:25:41;;;;;;;22.97;11.23;;;;;;;3.73;100.00;99911.81;4907747;29;20497;-87
2021/12/15 01:28:08;;;;;;;27.60;13.67;;;;;;;3.65;100.00;99906.94;4916901;29;20422;-88
2021/12/15 01:30:38;;;;;;;29.90;13.97;;;;;;;3.45;100.00;99850.31;4917627;29;20425;-89
2021/12/15 01:33:04;;;;;;;22.97;11.33;;;;;;;1.85;100.00;99610.00;4905746;29;20418;-88
2021/12/15 01:35:32;;;;;;;20.37;9.67;;;;;;;3.71;100.00;99907.44;4903957;29;20888;-88
2021/12/15 01:37:58;;;;;;;20.60;9.87;;;;;;;3.65;100.00;99910.31;4903362;29;20422;-87
2021/12/15 01:40:34;;;;;;;19.37;9.63;;;;;;;2.66;100.00;99748.13;4902506;29;20517;-87
2021/12/15 01:43:22;;;;;;;24.40;11.77;;;;;;;2.15;100.00;99647.41;4918558;29;20465;-87
2021/12/15 01:48:39;;;;;;;21.60;10.27;;;;;;;3.65;100.00;99914.44;4918645;29;20505;-87
2021/12/15 01:51:07;;;;;;;19.83;8.77;;;;;;;3.18;100.00;99813.13;4925185;29;20482;-86
2021/12/15 01:53:33;;;;;;;22.83;10.60;;;;;;;3.34;100.00;99861.09;4924161;29;20420;-87
2021/12/15 01:56:00;;;;;;;18.17;8.10;;;;;;;3.70;100.00;99913.19;4969156;29;20508;-86
2021/12/15 01:58:26;;;;;;;16.33;8.33;;;;;;;3.58;100.00;99913.97;4963515;29;20192;-87
2021/12/15 02:00:56;;;;;;;21.70;10.30;;;;;;;3.64;100.00;99906.06;4957937;29;20511;-88
2021/12/15 02:03:23;;;;;;;24.00;11.50;;;;;;;3.64;100.00;99906.06;4941840;29;20181;-87
2021/12/15 02:05:49;;;;;;;22.27;9.23;;;;;;;1.00;100.00;99474.25;4958272;29;20428;-88
2021/12/15 02:08:14;;;;;;;21.33;11.37;;;;;;;2.85;100.00;99794.72;4940919;29;20417;-87
2021/12/15 02:10:42;;;;;;;25.60;11.90;;;;;;;1.78;100.00;99622.03;4940371;29;20335;-88
2021/12/15 02:13:11;;;;;;;20.50;9.73;;;;;;;3.35;100.00;99900.41;4940904;29;20256;-88
2021/12/15 02:15:44;;;;;;;21.07;9.57;;;;;;;1.52;100.00;99561.63;4941045;29;20503;-87
2021/12/15 02:18:13;;;;;;;19.73;9.60;;;;;;;2.19;100.00;99709.34;4939150;29;20425;-86
2021/12/15 02:20:44;;;;;;;19.63;8.40;;;;;;;3.56;100.00;99894.56;4940243;29;20443;-87
2021/12/15 02:23:14;;;;;;;17.43;7.80;;;;;;;3.46;100.00;99894.63;4957680;29;20737;-88
2021/12/15 02:25:40;;;;;;;22.43;10.77;;;;;;;1.19;100.00;99474.13;4941075;29;20446;-88
2021/12/15 02:28:08;;;;;;;15.90;8.00;;;;;;;2.37;100.00;99698.31;4942187;29;20424;-87
2021/12/15 02:38:42;;;;;;;22.07;10.20;;;;;;;3.37;100.00;99856.34;4922270;29;20500;-87
2021/12/15 02:41:19;;;;;;;17.10;7.43;;;;;;;3.50;100.00;99879.06;4935242;29;20918;-87
2021/12/15 02:43:50;;;;;;;18.30;8.60;;;;;;;2.21;100.00;99652.91;4935585;29;20819;-87
2021/12/15 02:46:16;;;;;;;15.20;7.47;;;;;;;1.61;100.00;99534.94;4919422;29;20790;-87
2021/12/15 02:48:42;;;;;;;13.53;6.80;;;;;;;1.38;100.00;99522.25;4920858;29;20424;-89
2021/12/15 02:51:08;;;;;;;13.93;7.20;;;;;;;2.84;100.00;99772.97;4935893;29;20173;-88
2021/12/15 02:53:33;;;;;;;16.93;8.90;;;;;;;1.39;100.00;99510.66;4921278;29;20189;-87
2021/12/15 02:55:59;;;;;;;17.63;8.67;;;;;;;2.87;100.00;99790.69;4919683;29;20492;-88
2021/12/15 02:58:31;;;;;;;16.03;7.63;;;;;;;2.27;100.00;99663.38;4934423;29;20653;-87
2021/12/15 03:01:08;;;;;;;18.43;8.23;;;;;;;3.20;100.00;99801.59;4919689;29;20675;-88
2021/12/15 03:06:27;;;;;;;14.43;7.23;;;;;;;1.95;100.00;99580.91;4935310;29;20489;-87
2021/12/15 03:17:11;;;;;;;14.20;7.13;;;;;;;0.95;100.00;99445.59;4897795;29;20470;-87
2021/12/15 03:19:38;;;;;;;16.17;8.07;;;;;;;3.49;100.00;99873.19;4881342;29;20459;-88
2021/12/15 03:22:04;;;;;;;14.53;6.80;;;;;;;2.83;100.00;99756.19;4896927;29;20618;-88
2021/12/15 03:24:29;;;;;;;14.63;6.83;;;;;;;2.40;100.00;99678.59;4896427;29;20534;-88
2021/12/15 03:27:04;;;;;;;11.10;5.57;;;;;;;3.60;100.00;99871.53;4881169;29;20183;-88
2021/12/15 03:37:45;;;;;;;15.20;6.37;;;;;;;3.54;100.00;99843.53;4896678;29;20427;-88
2021/12/15 03:40:20;;;;;;;11.27;5.90;;;;;;;3.60;100.00;99843.13;4897058;29;20475;-87
2021/12/15 03:42:53;;;;;;;15.73;7.50;;;;;;;3.64;100.00;99860.13;4908446;29;20498;-85
2021/12/15 03:45:27;;;;;;;13.00;7.20;;;;;;;3.68;100.00;99878.00;4904926;29;20494;-87
2021/12/15 03:47:58;;;;;;;13.13;6.47;;;;;;;3.26;100.00;99814.59;4896473;29;20419;-87
2021/12/15 03:50:27;;;;;;;12.63;6.70;;;;;;;2.56;100.00;99704.03;4903983;29;20488;-88
2021/12/15 03:52:53;;;;;;;15.00;7.97;;;;;;;2.43;100.00;99682.97;4923188;29;20648;-87
2021/12/15 03:55:25;;;;;;;15.57;7.57;;;;;;;3.65;100.00;99881.91;4932768;29;20401;-88
2021/12/15 03:57:51;;;;;;;14.33;7.63;;;;;;;3.63;100.00;99884.28;4941734;29;20218;-88
2021/12/15 04:00:17;;;;;;;14.37;7.63;;;;;;;1.37;100.00;99530.47;4919109;29;20457;-88
2021/12/15 04:02:44;;;;;;;12.70;6.80;;;;;;;1.73;100.00;99593.28;4934927;29;20405;-87
2021/12/15 04:05:11;;;;;;;15.50;6.60;;;;;;;2.81;100.00;99767.72;4934820;29;20194;-88
2021/12/15 04:07:37;;;;;;;11.53;6.03;;;;;;;3.47;100.00;99897.22;4935196;29;20477;-88
2021/12/15 04:10:06;;;;;;;13.03;6.27;;;;;;;3.44;100.00;99873.56;4934161;29;20473;-87
2021/12/15 04:12:32;;;;;;;15.23;7.17;;;;;;;2.80;100.00;99795.94;4934370;29;20227;-86
2021/12/15 04:15:18;;;;;;;11.90;6.10;;;;;;;2.60;100.00;99746.03;4955705;29;20393;-87
2021/12/15 04:17:43;;;;;;;15.83;7.03;;;;;;;3.43;100.00;99890.22;4955459;29;20188;-88
2021/12/15 04:20:14;;;;;;;14.00;7.03;;;;;;;1.83;100.00;99631.47;4955074;28;20483;-87
2021/12/15 04:22:41;;;;;;;11.43;6.20;;;;;;;3.40;100.00;99896.63;4946038;29;20523;-87
2021/12/15 04:25:13;;;;;;;18.80;8.67;;;;;;;2.14;100.00;99681.50;4960317;29;20471;-86
2021/12/15 04:27:40;;;;;;;19.93;8.77;;;;;;;3.46;100.00;99907.13;4938727;29;20419;-87
2021/12/15 04:30:08;;;;;;;17.87;7.53;;;;;;;3.28;100.00;99895.66;4938885;29;20877;-86
2021/12/15 04:32:44;;;;;;;15.73;7.43;;;;;;;3.16;100.00;99877.19;4939113;29;20432;-87
2021/12/15 04:35:10;;;;;;;19.67;8.30;;;;;;;3.15;100.00;99890.41;4940016;29;20814;-87
2021/12/15 04:37:37;;;;;;;15.33;7.57;;;;;;;3.19;100.00;99917.41;4954868;29;20939;-87
2021/12/15 04:40:06;;;;;;;17.97;9.13;;;;;;;0.36;100.00;99418.28;4955829;29;20476;-86
2021/12/15 04:42:32;;;;;;;20.33;9.47;;;;;;;2.33;100.00;99778.78;4937381;29;20435;-87
2021/12/15 04:44:57;;;;;;;18.53;8.67;;;;;;;0.55;100.00;99448.94;4937528;29;20428;-86
2021/12/15 04:47:24;;;;;;;15.30;7.47;;;;;;;3.23;100.00;99941.94;4955905;29;20925;-87
2021/12/15 04:49:54;;;;;;;18.07;9.37;;;;;;;3.23;100.00;99924.44;4955013;29;20172;-87
2021/12/15 04:52:23;;;;;;;19.43;9.97;;;;;;;3.29;100.00;99909.91;4938053;29;20599;-87
2021/12/15 04:54:49;;;;;;;34.97;14.60;;;;;;;2.45;100.00;99799.75;4937434;29;20431;-88
2021/12/15 04:57:17;;;;;;;28.97;14.20;;;;;;;0.82;100.00;99521.72;4936074;29;20443;-87
2021/12/15 04:59:44;;;;;;;21.20;11.77;;;;;;;2.72;100.00;99859.44;4918543;29;20491;-87
2021/12/15 05:02:10;;;;;;;24.80;11.43;;;;;;;2.67;100.00;99838.22;4918577;29;20504;-88
2021/12/15 05:04:36;;;;;;;27.33;11.70;;;;;;;1.41;100.00;99601.41;4935506;29;20437;-87
2021/12/15 05:07:03;;;;;;;19.13;8.77;;;;;;;1.12;100.00;99530.09;4919801;29;20433;-88
2021/12/15 05:09:29;;;;;;;23.43;10.20;;;;;;;2.73;100.00;99811.22;4923593;29;20625;-87
2021/12/15 05:11:54;;;;;;;22.77;10.13;;;;;;;1.34;100.00;99594.19;4938915;29;20465;-88
2021/12/15 05:14:22;;;;;;;21.97;9.70;;;;;;;2.97;100.00;99894.81;4922533;29;20190;-87
2021/12/15 05:16:48;;;;;;;18.77;8.97;;;;;;;2.00;100.00;99711.09;4940622;29;20193;-86
2021/12/15 05:19:13;;;;;;;22.73;10.70;;;;;;;3.33;100.00;99956.94;4930395;29;20520;-87
2021/12/15 05:21:39;;;;;;;17.00;8.70;;;;;;;2.40;100.00;99781.00;4925436;29;20204;-87
2021/12/15 05:24:14;;;;;;;21.63;10.20;;;;;;;3.26;100.00;99944.69;4940576;29;20181;-86
2021/12/15 05:26:40;;;;;;;24.70;10.93;;;;;;;1.93;100.00;99714.72;4951695;29;20184;-86
2021/12/15 05:29:10;;;;;;;23.97;11.47;;;;;;;3.27;100.00;99943.94;4943697;29;20423;-86
2021/12/15 05:31:36;;;;;;;17.83;8.03;;;;;;;2.37;100.00;99796.63;4942433;29;20420;-87
2021/12/15 05:34:03;;;;;;;24.17;11.40;;;;;;;2.67;100.00;99839.84;4941138;29;20438;-87
2021/12/15 05:36:28;;;;;;;20.13;9.63;;;;;;;1.82;100.00;99720.44;4930260;28;20546;-87
2021/12/15 05:38:54;;;;;;;26.07;12.23;;;;;;;1.02;100.00;99596.50;4940664;29;20467;-87
2021/12/15 05:41:20;;;;;;;28.60;12.47;;;;;;;1.91;100.00;99755.28;4940836;29;20259;-87
2021/12/15 05:43:46;;;;;;;22.33;10.67;;;;;;;2.96;100.00;99938.09;4956830;28;20270;-88
2021/12/15 05:46:11;;;;;;;22.83;10.33;;;;;;;2.66;100.00;99908.97;4981777;28;20474;-88
2021/12/15 05:48:37;;;;;;;26.13;12.57;;;;;;;1.18;100.00;99636.94;4961934;29;20239;-87
2021/12/15 05:51:02;;;;;;;22.43;11.17;;;;;;;1.22;100.00;99658.00;4944994;29;20176;-86
2021/12/15 05:53:28;;;;;;;19.70;9.57;;;;;;;2.01;100.00;99776.13;4951336;29;20181;-86
2021/12/15 05:55:53;;;;;;;23.67;11.03;;;;;;;1.12;100.00;99609.00;4965236;29;20560;-87
2021/12/15 05:58:20;;;;;;;33.07;14.70;;;;;;;0.87;100.00;99581.16;4954519;29;20184;-88
2021/12/15 06:00:47;;;;;;;27.53;13.40;;;;;;;1.89;100.00;99752.66;4951203;29;20267;-87
2021/12/15 06:03:13;;;;;;;29.20;13.30;;;;;;;0.94;100.00;99600.84;4948840;29;20421;-87
2021/12/15 06:05:39;;;;;;;25.63;11.53;;;;;;;2.07;100.00;99799.09;4960944;29;20924;-87
2021/12/15 06:08:05;;;;;;;28.73;13.60;;;;;;;3.18;100.00;99991.63;4943276;29;20428;-87
2021/12/15 06:10:35;;;;;;;34.57;15.57;;;;;;;1.31;100.00;99622.25;4969952;28;20319;-88
2021/12/15 06:13:03;;;;;;;34.00;14.83;;;;;;;1.21;100.00;99628.84;4948346;29;20428;-87
2021/12/15 06:15:30;;;;;;;36.20;16.37;;;;;;;1.98;100.00;99758.41;4943203;29;20424;-88
2021/12/15 06:18:02;;;;;;;34.47;16.93;;;;;;;3.07;100.00;99949.84;4949567;29;20496;-88
2021/12/15 06:20:29;;;;;;;37.53;18.30;;;;;;;1.30;100.00;99639.56;4942301;29;20495;-87
2021/12/15 06:22:55;;;;;;;33.23;15.97;;;;;;;2.20;100.00;99781.00;4940926;29;20463;-87
2021/12/15 06:25:22;;;;;;;37.07;17.63;;;;;;;2.86;100.00;99885.56;4965521;29;20408;-87
2021/12/15 06:27:48;;;;;;;26.87;11.57;;;;;;;1.33;100.00;99675.59;4951259;29;20420;-88
2021/12/15 06:30:14;;;;;;;33.13;14.50;;;;;;;1.72;100.00;99703.84;4954950;29;20420;-86
2021/12/15 06:32:40;;;;;;;71.03;28.13;;;;;;;3.60;100.00;100048.41;4987987;28;20172;-91
2021/12/15 06:35:07;;;;;;;27.13;12.90;;;;;;;0.36;100.00;99478.03;4986110;28;20432;-89
2021/12/15 06:37:32;;;;;;;25.20;11.43;;;;;;;1.31;100.00;99612.28;4963073;28;20267;-88
2021/12/15 06:39:58;;;;;;;41.53;18.80;;;;;;;0.17;100.00;99424.06;4960098;29;20460;-90
2021/12/15 06:42:24;;;;;;;27.57;13.27;;;;;;;1.34;100.00;99667.38;4941994;29;20279;-89
2021/12/15 06:44:50;;;;;;;31.03;14.13;;;;;;;1.69;100.00;99692.75;4944394;29;20557;-89
2021/12/15 06:57:14;;;;;;;33.97;15.27;;;;;;;0.71;100.00;99517.47;4953716;29;20198;-89
2021/12/15 06:58:23;;;;;;;30.10;15.03;;;;;;;1.89;100.00;99724.34;4983620;28;20416;-88
2021/12/15 07:00:54;;;;;;;38.97;15.37;;;;;;;0.54;100.00;99467.13;4954019;29;20411;-87
2021/12/15 07:03:21;;;;;;;42.43;21.40;;;;;;;0.76;100.00;99468.91;4947367;29;20413;-88
2021/12/15 07:05:48;;;;;;;35.30;15.37;;;;;;;2.83;100.00;99848.69;4951748;29;20440;-87
2021/12/15 07:08:14;;;;;;;28.17;13.10;;;;;;;0.53;100.00;99452.03;4948746;29;20510;-87
2021/12/15 07:10:44;;;;;;;28.47;12.90;;;;;;;1.62;100.00;99655.56;4950240;29;20509;-86
2021/12/15 07:13:11;;;;;;;28.10;12.60;;;;;;;2.13;100.00;99753.78;4950002;29;20452;-89
2021/12/15 07:15:37;;;;;;;26.63;13.13;;;;;;;1.97;100.00;99724.22;4949857;29;20427;-89
2021/12/15 07:18:06;;;;;;;31.77;13.57;;;;;;;0.16;100.00;99377.56;4949030;29;20924;-88
2021/12/15 07:20:44;;;;;;;34.77;15.10;;;;;;;0.15;100.00;99391.59;4964602;29;20459;-88
2021/12/15 07:23:22;;;;;;;34.57;15.03;;;;;;;2.19;100.00;99744.31;4945755;29;20420;-86
2021/12/15 07:25:51;;;;;;;48.97;21.23;;;;;;;0.55;100.00;99487.91;4946056;29;20418;-86
2021/12/15 07:28:19;;;;;;;37.67;17.43;;;;;;;1.96;100.00;99716.59;4949688;28;20443;-88
2021/12/15 07:30:46;;;;;;;55.47;26.13;;;;;;;4.05;100.00;100044.53;4985444;28;20408;-87
2021/12/15 07:33:13;;;;;;;58.73;26.83;;;;;;;2.44;100.00;99780.53;4967650;28;20426;-89
2021/12/15 07:35:39;;;;;;;63.53;27.60;;;;;;;3.56;100.00;99982.19;4969404;28;20411;-87
2021/12/15 07:38:06;;;;;;;51.87;23.30;;;;;;;0.76;100.00;99481.34;4963890;28;20411;-89
2021/12/15 07:40:32;;;;;;;92.40;46.57;;;;;;;-0.37;100.00;99271.97;4964807;28;20222;-87
2021/12/15 07:43:07;;;;;;;42.90;20.20;;;;;;;3.30;100.00;99781.56;4963666;28;20498;-87
2021/12/15 07:46:00;;;;;;;38.80;17.83;;;;;;;4.94;100.00;100051.53;4939718;28;20430;-87
2021/12/15 07:48:29;;;;;;;29.60;12.97;;;;;;;2.46;100.00;99695.69;4894786;29;20435;-88
2021/12/15 07:50:57;;;;;;;33.63;16.47;;;;;;;1.21;100.00;99427.75;4905546;29;20431;-89
2021/12/15 07:53:23;;;;;;;36.60;15.73;;;;;;;2.56;100.00;99713.16;4918486;29;20434;-88
2021/12/15 07:55:50;;;;;;;26.47;14.23;;;;;;;0.56;100.00;99356.06;4904779;29;20422;-88
2021/12/15 07:58:18;;;;;;;34.30;16.53;;;;;;;0.40;100.00;99339.75;4909622;29;20435;-88
2021/12/15 08:00:46;;;;;;;29.43;16.03;;;;;;;3.40;100.00;99819.06;4885896;29;21046;-85
2021/12/15 08:03:12;;;;;;;28.83;14.37;;;;;;;4.85;100.00;100092.59;4900307;29;20422;-86
2021/12/15 08:05:39;;;;;;;26.13;11.83;;;;;;;1.57;100.00;99514.59;4884654;29;20510;-89
2021/12/15 08:08:05;;;;;;;24.97;11.77;;;;;;;4.67;100.00;100075.38;4886893;29;20952;-87
2021/12/15 08:10:32;;;;;;;40.50;20.13;;;;;;;3.26;100.00;99810.47;4898522;29;20550;-88
2021/12/15 08:12:57;;;;;;;22.27;10.87;;;;;;;3.79;100.00;99888.88;4882756;29;20514;-88
2021/12/15 08:15:23;;;;;;;32.17;14.37;;;;;;;2.27;100.00;99671.75;4899127;29;20467;-86
2021/12/15 08:17:51;;;;;;;36.03;15.47;;;;;;;3.61;100.00;99873.28;4884101;29;20182;-88
2021/12/15 08:20:22;;;;;;;24.97;11.33;;;;;;;2.63;100.00;99698.78;4898664;29;20210;-88
2021/12/15 08:22:48;;;;;;;25.70;11.97;;;;;;;1.99;100.00;99597.00;4888326;29;20547;-87
2021/12/15 08:25:16;;;;;;;43.87;18.47;;;;;;;1.70;100.00;99539.81;4935543;29;20424;-86
2021/12/15 08:27:43;;;;;;;22.37;10.60;;;;;;;1.02;100.00;99469.38;4960935;29;20184;-90
2021/12/15 08:30:13;;;;;;;26.13;12.10;;;;;;;3.13;100.00;99856.91;4965304;29;20411;-89
2021/12/15 08:32:40;;;;;;;28.27;13.33;;;;;;;0.99;100.00;99464.19;4947198;29;20409;-88
2021/12/15 08:35:07;;;;;;;28.47;12.87;;;;;;;1.12;100.00;99449.47;4947142;29;20428;-86
2021/12/15 08:37:33;;;;;;;30.10;13.73;;;;;;;1.57;100.00;99453.13;4972195;29;20411;-86
2021/12/15 08:39:59;;;;;;;27.67;13.43;;;;;;;2.09;97.13;99510.47;4948537;29;20456;-88
2021/12/15 08:42:27;;;;;;;20.83;10.20;;;;;;;3.68;96.05;99722.78;4950632;29;20412;-86
2021/12/15 08:45:09;;;;;;;24.00;12.43;;;;;;;3.97;95.62;99740.88;4957840;29;20169;-87
2021/12/15 08:47:34;;;;;;;22.70;11.23;;;;;;;4.86;95.66;99828.50;4929448;29;20483;-86
2021/12/15 08:50:00;;;;;;;21.73;10.20;;;;;;;5.96;93.92;100034.03;4940736;29;20400;-88
2021/12/15 08:52:26;;;;;;;26.77;13.30;;;;;;;6.28;94.48;100088.34;4941308;29;20169;-87
2021/12/15 08:54:53;;;;;;;29.37;14.60;;;;;;;3.89;95.30;99699.38;4940590;29;20173;-87
2021/12/15 08:57:18;;;;;;;20.10;9.57;;;;;;;5.98;95.01;100105.38;4943714;29;20237;-86
2021/12/15 08:59:44;;;;;;;19.20;9.90;;;;;;;2.11;94.85;99440.72;4946158;29;20460;-88
2021/12/15 09:02:11;;;;;;;25.43;12.93;;;;;;;4.29;96.06;99828.44;4945273;29;20184;-89
2021/12/15 09:04:39;;;;;;;23.77;11.53;;;;;;;5.01;96.58;99967.56;4943811;29;20268;-89
2021/12/15 09:07:04;;;;;;;23.70;12.43;;;;;;;5.40;96.72;100038.28;4934158;29;20408;-86
2021/12/15 09:09:30;;;;;;;28.70;13.97;;;;;;;2.36;96.84;99519.25;4959589;29;20836;-87
2021/12/15 09:11:56;;;;;;;28.27;11.17;;;;;;;5.32;96.85;99997.56;4953188;29;20168;-89
2021/12/15 09:14:21;;;;;;;25.50;13.37;;;;;;;4.46;96.31;99847.25;4948899;29;20244;-87
2021/12/15 09:16:51;;;;;;;30.33;11.53;;;;;;;5.62;96.65;100045.75;4948354;29;20187;-88
2021/12/15 09:19:17;;;;;;;40.37;18.97;;;;;;;4.20;97.14;99821.88;4950639;29;20235;-87
2021/12/15 09:21:44;;;;;;;64.73;26.63;;;;;;;2.40;96.48;99501.22;4976090;28;20423;-89
2021/12/15 09:24:11;;;;;;;27.80;12.27;;;;;;;2.18;95.27;99461.25;4964494;28;20503;-89
2021/12/15 09:26:37;;;;;;;60.60;23.50;;;;;;;3.69;96.37;99694.50;4960978;29;20489;-87
2021/12/15 09:29:05;;;;;;;43.43;21.83;;;;;;;3.69;95.87;99674.47;4945392;29;20450;-89
2021/12/15 09:31:30;;;;;;;27.50;13.33;;;;;;;2.28;96.15;99470.34;4939965;29;20441;-89
2021/12/15 09:33:57;;;;;;;29.23;13.57;;;;;;;2.55;96.40;99534.03;4942847;29;20512;-86
2021/12/15 09:36:24;;;;;;;47.07;19.80;;;;;;;2.70;97.10;99543.56;4942158;29;20165;-88
2021/12/15 09:38:54;;;;;;;50.33;22.17;;;;;;;3.76;96.41;99730.91;4953420;29;20498;-87
2021/12/15 09:41:23;;;;;;;44.17;19.40;;;;;;;5.83;95.89;100092.50;4974099;28;20407;-89
2021/12/15 09:43:51;;;;;;;51.17;18.53;;;;;;;5.81;96.41;100091.53;4973548;28;20419;-88
2021/12/15 09:46:37;;;;;;;27.37;13.23;;;;;;;5.30;96.20;100024.16;4933233;28;20472;-87
2021/12/15 09:57:30;;;;;;;28.60;14.50;;;;;;;3.42;94.52;99654.91;4947193;29;20461;-88
2021/12/15 10:02:51;;;;;;;30.00;13.93;;;;;;;2.10;94.69;99461.41;4948243;29;20404;-87
2021/12/15 10:19:36;;;;;;;25.97;13.30;;;;;;;5.85;95.84;100088.53;4899573;29;20473;-86
2021/12/15 10:22:47;;;;;;;34.73;17.07;;;;;;;5.93;95.75;100098.34;4898960;29;20494;-86
2021/12/15 10:25:20;;;;;;;20.53;11.87;;;;;;;6.20;94.45;100091.06;4897887;29;20832;-88
2021/12/15 10:27:51;;;;;;;28.20;15.50;;;;;;;4.50;94.44;99837.56;4898410;29;20419;-88
2021/12/15 10:30:25;;;;;;;21.97;12.27;;;;;;;6.13;94.10;100088.84;4884480;29;20427;-89
2021/12/15 10:33:05;;;;;;;27.30;13.17;;;;;;;4.69;94.04;99835.66;4901332;29;20415;-87
2021/12/15 10:35:32;;;;;;;24.00;13.17;;;;;;;6.19;93.07;100077.63;4884125;29;20423;-88
2021/12/15 10:38:15;;;;;;;46.27;22.33;;;;;;;5.84;93.86;100027.31;4899340;29;20484;-88
2021/12/15 10:40:49;;;;;;;22.10;11.13;;;;;;;4.21;93.08;99736.81;4902875;29;20491;-91
2021/12/15 10:43:15;;;;;;;18.30;10.43;;;;;;;6.26;92.19;100089.84;4916796;29;20427;-89
2021/12/15 10:45:44;;;;;;;20.57;10.37;;;;;;;4.14;92.07;99720.47;4906522;29;20433;-87
2021/12/15 10:48:20;;;;;;;21.50;11.10;;;;;;;3.16;92.08;99602.91;4954618;29;20425;-88
2021/12/15 10:50:48;;;;;;;17.30;9.53;;;;;;;3.22;92.13;99589.97;4935725;29;20442;-89
2021/12/15 10:53:28;;;;;;;23.87;10.70;;;;;;;6.07;93.19;100096.00;4931829;29;20804;-88
2021/12/15 10:55:56;;;;;;;24.60;12.60;;;;;;;4.75;92.96;99828.56;4937148;29;20174;-91
2021/12/15 10:58:47;;;;;;;24.90;11.43;;;;;;;3.40;92.31;99603.88;4940495;29;20204;-89
2021/12/15 11:01:30;;;;;;;16.63;8.77;;;;;;;6.21;91.56;100082.75;4949328;29;20523;-90
2021/12/15 11:03:57;;;;;;;17.03;9.03;;;;;;;5.56;92.50;100005.09;4930286;29;20421;-91
2021/12/15 11:06:33;;;;;;;22.10;11.83;;;;;;;4.70;93.19;99874.13;4949301;29;20397;-87
2021/12/15 11:09:24;;;;;;;25.23;12.63;;;;;;;1.76;92.69;99325.69;4947309;29;20532;-89
2021/12/15 11:12:08;;;;;;;26.93;12.27;;;;;;;2.93;93.20;99558.69;4943805;29;20425;-89
2021/12/15 11:14:37;;;;;;;21.20;9.63;;;;;;;4.72;93.31;99883.50;4937863;29;20421;-87
2021/12/15 11:17:17;;;;;;;27.37;12.17;;;;;;;5.89;94.43;100086.34;4938874;29;20448;-87
2021/12/15 11:19:59;;;;;;;37.17;17.03;;;;;;;5.24;93.95;99962.63;4920742;29;20472;-88
2021/12/15 11:22:37;;;;;;;24.10;10.13;;;;;;;5.88;94.62;100089.59;4924603;29;20517;-89
2021/12/15 11:25:28;;;;;;;40.57;16.50;;;;;;;4.38;94.26;99803.19;4923775;29;20444;-89
2021/12/15 11:28:03;;;;;;;48.03;25.53;;;;;;;1.77;93.67;99388.19;4932653;29;20432;-88
2021/12/15 11:30:36;;;;;;;22.17;9.03;;;;;;;2.29;94.46;99492.03;4946791;29;20420;-89
2021/12/15 11:33:25;;;;;;;21.17;9.33;;;;;;;5.79;95.15;100083.03;4944910;29;20413;-87
2021/12/15 11:35:56;;;;;;;23.93;10.60;;;;;;;4.97;95.04;99968.97;4964964;29;20479;-87
2021/12/15 11:38:28;;;;;;;25.60;13.17;;;;;;;5.56;94.59;100040.28;4952452;29;20427;-87
2021/12/15 11:40:56;;;;;;;22.07;11.30;;;;;;;5.70;94.55;100074.81;4949722;29;20455;-88
2021/12/15 11:43:32;;;;;;;22.67;10.93;;;;;;;5.68;94.14;100094.81;4944640;29;20428;-89
2021/12/15 11:46:00;;;;;;;24.53;10.27;;;;;;;2.28;93.66;99520.28;4939861;29;20455;-89
2021/12/15 11:48:32;;;;;;;24.80;11.30;;;;;;;4.25;93.66;99870.69;4950723;29;20420;-84
2021/12/15 11:51:02;;;;;;;27.93;13.07;;;;;;;4.03;94.05;99813.97;4954106;29;20427;-90
2021/12/15 11:53:36;;;;;;;19.43;9.73;;;;;;;5.53;95.12;100087.75;4947991;29;20481;-90
2021/12/15 11:56:15;;;;;;;22.37;10.63;;;;;;;5.48;94.38;100079.00;4952809;29;20459;-89
2021/12/15 11:58:42;;;;;;;22.57;9.10;;;;;;;1.33;93.88;99371.38;4956153;29;20480;-88
2021/12/15 12:01:08;;;;;;;29.90;15.37;;;;;;;1.12;93.64;99360.63;4956386;29;20428;-93
2021/12/15 12:03:36;;;;;;;37.07;18.67;;;;;;;1.14;94.03;99344.16;4943572;29;20431;-90
2021/12/15 12:06:18;;;;;;;;;;;;;;;;;;;;;
2021/12/15 12:09:02;;;;;;;25.77;11.90;;;;;;;1.15;94.32;99352.50;4964096;29;20480;-90
2021/12/15 12:11:29;;;;;;;22.37;10.17;;;;;;;1.68;94.18;99452.34;4902282;29;20542;-89
2021/12/15 12:13:59;;;;;;;17.27;9.13;;;;;;;3.09;94.22;99697.34;4881640;29;20447;-90
2021/12/15 12:16:25;;;;;;;35.33;17.97;;;;;;;2.11;94.47;99540.56;4888183;29;20430;-89
2021/12/15 12:18:52;;;;;;;23.10;12.10;;;;;;;2.01;94.28;99530.59;4899354;29;20490;-90
2021/12/15 12:21:18;;;;;;;37.23;16.40;;;;;;;1.45;93.90;99427.22;4890129;29;20530;-89
2021/12/15 12:23:46;;;;;;;57.17;23.43;;;;;;;4.76;94.39;99960.72;4885985;29;21365;-88
2021/12/15 12:26:13;;;;;;;38.23;20.13;;;;;;;2.98;94.02;99627.41;4886715;29;20438;-89
2021/12/15 12:28:43;;;;;;;83.93;41.07;;;;;;;4.17;93.75;99815.03;4880703;29;20569;-89
2021/12/15 12:31:23;;;;;;;31.80;15.20;;;;;;;5.30;93.33;100076.03;4905735;29;20452;-90
2021/12/15 12:33:50;;;;;;;20.70;11.10;;;;;;;5.56;92.81;100123.13;4921580;29;20505;-89
2021/12/15 12:36:30;;;;;;;27.07;14.07;;;;;;;2.63;93.31;99591.34;4894792;29;20463;-89
2021/12/15 12:39:00;;;;;;;15.60;8.17;;;;;;;4.07;93.22;99848.50;4904984;29;20547;-90
2021/12/15 12:45:37;;;;;;;14.20;6.97;;;;;;;5.46;93.29;100101.50;4846113;29;20489;-90
2021/12/15 13:03:13;;;;;;;21.63;11.67;;;;;;;3.25;92.00;99698.66;4835881;29;20442;-89